createdAt,value
2023-03-24T00:01:12.084Z,94.90
2023-03-24T00:03:20.472Z,94.90
2023-03-24T00:05:29.595Z,95.10
2023-03-24T00:07:39.980Z,95.30
2023-03-24T00:09:48.922Z,95.30
2023-03-24T00:11:56.160Z,95.50
2023-03-24T00:14:03.797Z,95.60
2023-03-24T00:16:13.357Z,95.70
2023-03-24T00:18:23.534Z,95.80
2023-03-24T00:20:30.576Z,96.30
2023-03-24T00:22:43.282Z,96.90
2023-03-24T00:24:50.615Z,97.70
2023-03-24T00:26:59.379Z,97.70
2023-03-24T00:29:07.487Z,97.90
2023-03-24T00:31:17.126Z,97.70
2023-03-24T00:33:25.137Z,97.60
2023-03-24T00:35:32.945Z,97.30
2023-03-24T00:37:42.886Z,97.00
2023-03-24T00:39:50.816Z,96.50
2023-03-24T00:41:59.692Z,96.30
2023-03-24T00:44:10.866Z,96.20
2023-03-24T00:46:28.670Z,95.90
2023-03-24T00:48:39.102Z,95.60
2023-03-24T00:50:49.771Z,94.80
2023-03-24T00:53:02.990Z,93.90
2023-03-24T00:55:10.692Z,93.30
2023-03-24T00:57:22.634Z,92.50
2023-03-24T00:59:30.737Z,91.90
2023-03-24T01:01:39.931Z,91.20
2023-03-24T01:03:51.757Z,90.40
2023-03-24T01:06:04.365Z,89.90
2023-03-24T01:08:14.002Z,89.40
2023-03-24T01:10:22.663Z,89.00
2023-03-24T01:12:31.122Z,88.70
2023-03-24T01:14:38.302Z,88.20
2023-03-24T01:16:45.827Z,87.80
2023-03-24T01:18:53.637Z,87.50
2023-03-24T01:21:02.356Z,86.80
2023-03-24T01:23:09.644Z,86.30
2023-03-24T01:25:22.379Z,84.90
2023-03-24T01:27:29.788Z,83.00
2023-03-24T01:29:38.249Z,81.30
2023-03-24T01:31:45.934Z,80.40
2023-03-24T01:33:53.124Z,80.60
2023-03-24T01:36:00.499Z,80.90
2023-03-24T01:38:10.150Z,81.10
2023-03-24T01:40:22.096Z,80.90
2023-03-24T01:42:30.967Z,80.60
2023-03-24T01:44:39.990Z,79.80
2023-03-24T01:46:47.120Z,78.90
2023-03-24T01:48:57.275Z,78.00
2023-03-24T01:51:11.080Z,78.10
2023-03-24T01:53:18.445Z,77.40
2023-03-24T01:55:27.677Z,76.30
2023-03-24T01:57:38.240Z,76.40
2023-03-24T01:59:49.157Z,76.60
2023-03-24T02:02:14.927Z,75.90
2023-03-24T02:04:37.006Z,76.00
2023-03-24T02:06:49.970Z,75.80
2023-03-24T02:08:59.303Z,75.30
2023-03-24T02:11:10.137Z,74.80
2023-03-24T02:13:27.647Z,73.90
2023-03-24T02:15:37.596Z,73.20
2023-03-24T02:17:59.118Z,72.60
2023-03-24T02:20:29.747Z,73.40
2023-03-24T02:23:02.277Z,72.60
2023-03-24T02:25:37.883Z,71.90
2023-03-24T02:28:23.609Z,70.10
2023-03-24T02:31:08.737Z,70.70
2023-03-24T02:33:47.655Z,69.80
2023-03-24T02:36:33.241Z,67.70
2023-03-24T02:39:19.990Z,67.80
2023-03-24T02:41:32.855Z,67.00
2023-03-24T02:46:24.679Z,65.70
2023-03-24T02:48:40.376Z,63.50
2023-03-24T02:50:54.319Z,63.50
2023-03-24T02:53:10.972Z,63.80
2023-03-24T02:55:38.395Z,64.80
2023-03-24T02:57:50.323Z,64.50
2023-03-24T03:00:40.094Z,64.40
2023-03-24T03:02:52.688Z,63.60
2023-03-24T03:05:04.854Z,61.10
2023-03-24T03:07:13.930Z,60.20
2023-03-24T03:09:23.154Z,59.90
2023-03-24T03:11:32.799Z,59.90
2023-03-24T03:13:42.948Z,59.80
2023-03-24T03:15:54.213Z,59.40
2023-03-24T03:18:03.909Z,59.20
2023-03-24T03:20:16.398Z,59.20
2023-03-24T03:22:27.809Z,58.90
2023-03-24T03:24:38.417Z,60.30
2023-03-24T03:26:49.957Z,60.20
2023-03-24T03:29:01.234Z,57.30
2023-03-24T03:31:11.811Z,59.70
2023-03-24T03:33:26.014Z,58.20
2023-03-24T03:35:38.634Z,58.60
2023-03-24T03:37:52.742Z,56.00
2023-03-24T03:40:02.951Z,55.60
2023-03-24T03:42:12.891Z,55.10
2023-03-24T03:44:20.636Z,56.50
2023-03-24T03:46:28.112Z,55.90
2023-03-24T03:48:37.560Z,57.50
2023-03-24T03:50:44.640Z,57.40
2023-03-24T03:52:53.257Z,58.00
2023-03-24T03:55:01.613Z,55.20
2023-03-24T03:57:09.349Z,55.80
2023-03-24T03:59:36.106Z,56.30
2023-03-24T04:01:49.927Z,56.30
2023-03-24T04:04:39.263Z,55.80
2023-03-24T04:07:18.232Z,54.50
2023-03-24T04:09:39.102Z,52.60
2023-03-24T04:12:07.136Z,53.10
2023-03-24T04:15:05.642Z,51.90
2023-03-24T04:17:54.939Z,52.50
2023-03-24T04:20:25.388Z,52.80
2023-03-24T04:22:41.680Z,52.50
2023-03-24T04:24:59.415Z,53.60
2023-03-24T04:27:13.048Z,52.70
2023-03-24T04:29:26.937Z,51.50
2023-03-24T04:31:38.375Z,51.70
2023-03-24T04:36:20.169Z,51.20
2023-03-24T04:39:08.317Z,49.60
2023-03-24T04:41:27.994Z,49.70
2023-03-24T04:43:48.735Z,51.10
2023-03-24T04:45:58.763Z,50.90
2023-03-24T04:48:29.784Z,48.10
2023-03-24T04:51:11.061Z,49.50
2023-03-24T04:53:35.907Z,49.30
2023-03-24T04:56:00.035Z,49.50
2023-03-24T04:58:36.412Z,49.40
2023-03-24T05:00:45.346Z,46.90
2023-03-24T05:02:54.324Z,48.70
2023-03-24T05:05:10.433Z,47.80
2023-03-24T05:07:25.497Z,47.00
2023-03-24T05:09:37.135Z,47.20
2023-03-24T05:11:45.132Z,45.50
2023-03-24T05:13:52.109Z,47.80
2023-03-24T05:15:59.490Z,47.80
2023-03-24T05:18:18.247Z,48.20
2023-03-24T05:20:27.427Z,47.80
2023-03-24T05:22:42.014Z,47.00
2023-03-24T05:24:49.379Z,48.90
2023-03-24T05:26:56.604Z,48.80
2023-03-24T05:29:04.963Z,47.30
2023-03-24T05:31:12.532Z,48.80
2023-03-24T05:33:27.008Z,48.30
2023-03-24T05:35:36.165Z,48.10
2023-03-24T05:37:43.570Z,47.40
2023-03-24T05:39:50.849Z,47.40
2023-03-24T05:42:13.495Z,47.80
2023-03-24T05:44:20.575Z,47.60
2023-03-24T05:46:41.212Z,46.80
2023-03-24T05:48:48.873Z,47.40
2023-03-24T05:51:00.148Z,47.80
2023-03-24T05:53:07.323Z,47.60
2023-03-24T05:55:43.634Z,48.20
2023-03-24T05:58:10.647Z,48.20
2023-03-24T06:00:25.650Z,47.90
2023-03-24T06:02:45.306Z,46.80
2023-03-24T06:05:13.762Z,45.60
2023-03-24T06:07:23.239Z,47.60
2023-03-24T06:09:33.700Z,51.20
2023-03-24T06:11:40.980Z,49.60
2023-03-24T06:13:50.242Z,46.60
2023-03-24T06:16:01.585Z,47.90
2023-03-24T06:18:27.728Z,48.30
2023-03-24T06:20:37.103Z,48.50
2023-03-24T06:22:50.744Z,46.80
2023-03-24T06:25:06.208Z,46.80
2023-03-24T06:27:15.184Z,46.10
2023-03-24T06:29:22.064Z,46.20
2023-03-24T06:31:31.434Z,46.30
2023-03-24T06:33:39.750Z,47.50
2023-03-24T06:35:47.511Z,46.40
2023-03-24T06:37:59.233Z,46.80
2023-03-24T06:40:11.593Z,46.40
2023-03-24T06:42:22.359Z,45.70
2023-03-24T06:44:31.221Z,48.20
2023-03-24T06:46:38.431Z,48.20
2023-03-24T06:48:47.276Z,48.10
2023-03-24T06:50:56.153Z,48.10
2023-03-24T06:53:05.538Z,48.10
2023-03-24T06:55:15.427Z,49.50
2023-03-24T06:57:22.812Z,49.60
2023-03-24T06:59:56.175Z,50.30
2023-03-24T07:02:07.061Z,50.00
2023-03-24T07:04:17.534Z,50.90
2023-03-24T07:07:14.691Z,52.70
2023-03-24T07:09:29.293Z,51.50
2023-03-24T07:11:36.270Z,50.50
2023-03-24T07:13:43.607Z,50.70
2023-03-24T07:15:50.890Z,50.50
2023-03-24T07:17:58.398Z,50.90
2023-03-24T07:20:14.223Z,50.90
2023-03-24T07:22:21.546Z,50.00
2023-03-24T07:24:48.645Z,49.30
2023-03-24T07:27:16.462Z,49.60
2023-03-24T07:29:23.488Z,49.00
2023-03-24T07:31:46.769Z,49.60
2023-03-24T07:33:54.100Z,50.10
2023-03-24T07:36:01.608Z,49.90
2023-03-24T07:38:09.059Z,50.60
2023-03-24T07:40:18.981Z,51.70
2023-03-24T07:42:26.598Z,51.40
2023-03-24T07:44:53.807Z,51.30
2023-03-24T07:47:00.851Z,50.40
2023-03-24T07:49:18.770Z,48.20
2023-03-24T07:51:37.867Z,48.30
2023-03-24T07:54:01.235Z,48.50
2023-03-24T07:56:25.103Z,47.60
2023-03-24T07:58:35.565Z,48.40
2023-03-24T08:00:54.223Z,48.10
2023-03-24T08:03:15.200Z,47.60
2023-03-24T08:05:28.863Z,48.10
2023-03-24T08:07:54.428Z,47.40
2023-03-24T08:10:01.395Z,47.50
2023-03-24T08:12:19.945Z,47.90
2023-03-24T08:14:27.483Z,46.90
2023-03-24T08:16:34.986Z,46.70
2023-03-24T08:18:41.951Z,45.90
2023-03-24T08:20:49.282Z,45.40
2023-03-24T08:22:56.912Z,45.20
2023-03-24T08:25:04.372Z,44.60
2023-03-24T08:27:13.079Z,45.10
2023-03-24T08:29:20.435Z,45.60
2023-03-24T08:31:27.337Z,45.70
2023-03-24T08:33:34.883Z,45.90
2023-03-24T08:35:42.264Z,45.90
2023-03-24T08:37:49.663Z,45.50
2023-03-24T08:39:59.603Z,45.60
2023-03-24T08:42:06.936Z,46.50
2023-03-24T08:44:15.959Z,46.60
2023-03-24T08:46:23.223Z,47.50
2023-03-24T08:48:31.407Z,47.50
2023-03-24T08:50:42.681Z,46.60
2023-03-24T08:52:50.683Z,47.50
2023-03-24T08:55:50.639Z,47.90
2023-03-24T08:58:24.705Z,48.30
2023-03-24T09:00:33.888Z,48.20
2023-03-24T09:02:41.543Z,48.40
2023-03-24T09:04:48.759Z,48.40
2023-03-24T09:07:02.934Z,48.70
2023-03-24T09:09:10.443Z,48.90
2023-03-24T09:11:20.796Z,49.20
2023-03-24T09:13:28.131Z,48.40
2023-03-24T09:15:37.104Z,48.40
2023-03-24T09:17:44.561Z,48.00
2023-03-24T09:19:51.518Z,47.80
2023-03-24T09:21:58.759Z,47.80
2023-03-24T09:24:05.731Z,47.50
2023-03-24T09:26:13.027Z,47.10
2023-03-24T09:28:20.039Z,47.00
2023-03-24T09:30:28.719Z,47.30
2023-03-24T09:32:39.701Z,47.60
2023-03-24T09:34:46.911Z,47.90
2023-03-24T09:36:54.243Z,48.20
2023-03-24T09:39:04.346Z,48.10
2023-03-24T09:41:20.644Z,48.30
2023-03-24T09:43:33.818Z,48.60
2023-03-24T09:45:47.913Z,49.30
2023-03-24T09:48:01.110Z,49.50
2023-03-24T09:50:12.771Z,49.50
2023-03-24T09:52:24.593Z,49.70
2023-03-24T09:54:33.945Z,49.90
2023-03-24T09:56:42.826Z,50.10
2023-03-24T09:58:56.497Z,50.60
2023-03-24T10:01:03.898Z,50.20
2023-03-24T10:03:22.652Z,49.80
2023-03-24T10:05:37.816Z,50.10
2023-03-24T10:07:51.589Z,50.10
2023-03-24T10:10:01.439Z,50.20
2023-03-24T10:12:20.042Z,50.10
2023-03-24T10:14:40.017Z,50.50
2023-03-24T10:16:53.344Z,50.40
2023-03-24T10:19:11.371Z,50.50
2023-03-24T10:21:23.527Z,50.90
2023-03-24T10:23:37.722Z,50.60
2023-03-24T10:25:53.301Z,50.60
2023-03-24T10:28:03.554Z,51.00
2023-03-24T10:30:19.033Z,51.20
2023-03-24T10:32:29.807Z,51.40
2023-03-24T10:34:40.313Z,51.50
2023-03-24T10:36:48.574Z,52.00
2023-03-24T10:38:55.595Z,52.10
2023-03-24T10:41:04.670Z,52.80
2023-03-24T10:43:12.011Z,53.20
2023-03-24T10:45:25.896Z,53.50
2023-03-24T10:47:34.771Z,53.30
2023-03-24T10:49:57.256Z,53.30
2023-03-24T10:52:06.997Z,54.20
2023-03-24T10:54:16.382Z,54.20
2023-03-24T10:56:41.756Z,54.50
2023-03-24T10:58:51.019Z,55.20
2023-03-24T11:00:58.595Z,55.00
2023-03-24T11:03:09.324Z,55.10
2023-03-24T11:05:23.878Z,55.30
2023-03-24T11:07:36.958Z,57.10
2023-03-24T11:09:45.787Z,57.20
2023-03-24T11:11:54.636Z,57.60
2023-03-24T11:14:03.354Z,58.50
2023-03-24T11:16:16.640Z,57.90
2023-03-24T11:18:24.937Z,57.80
2023-03-24T11:20:36.779Z,57.80
2023-03-24T11:22:43.982Z,57.90
2023-03-24T11:24:54.733Z,58.70
2023-03-24T11:27:03.285Z,59.60
2023-03-24T11:29:15.289Z,59.60
2023-03-24T11:31:27.079Z,60.00
2023-03-24T11:33:37.223Z,59.90
2023-03-24T11:35:50.343Z,59.80
2023-03-24T11:38:09.560Z,60.10
2023-03-24T11:40:22.589Z,61.00
2023-03-24T11:42:31.447Z,61.00
2023-03-24T11:44:49.591Z,61.30
2023-03-24T11:47:00.762Z,62.30
2023-03-24T11:49:08.720Z,62.10
2023-03-24T11:51:26.767Z,62.10
2023-03-24T11:53:45.404Z,62.20
2023-03-24T11:55:57.599Z,62.40
2023-03-24T11:58:07.391Z,62.20
2023-03-24T12:00:23.070Z,62.20
2023-03-24T12:02:45.526Z,62.20
2023-03-24T12:05:14.353Z,62.00
2023-03-24T12:07:45.654Z,62.50
2023-03-24T12:09:58.829Z,63.30
2023-03-24T12:12:28.929Z,63.80
2023-03-24T12:14:50.101Z,64.50
2023-03-24T12:17:05.426Z,65.40
2023-03-24T12:19:51.728Z,65.60
2023-03-24T12:22:09.707Z,65.40
2023-03-24T12:24:27.896Z,65.10
2023-03-24T12:26:36.099Z,64.80
2023-03-24T12:28:55.419Z,64.90
2023-03-24T12:31:14.708Z,65.50
2023-03-24T12:33:39.543Z,66.30
2023-03-24T12:36:00.751Z,66.70
2023-03-24T12:38:23.481Z,66.80
2023-03-24T12:41:06.720Z,67.50
2023-03-24T12:43:24.182Z,67.60
2023-03-24T12:45:40.762Z,67.20
2023-03-24T12:48:10.229Z,66.80
2023-03-24T12:50:30.067Z,67.30
2023-03-24T12:53:06.646Z,68.10
2023-03-24T12:55:19.042Z,68.50
2023-03-24T12:57:29.398Z,68.00
2023-03-24T12:59:41.139Z,68.10
2023-03-24T13:01:51.159Z,67.40
2023-03-24T13:04:06.610Z,67.50
2023-03-24T13:06:24.400Z,67.70
2023-03-24T13:08:33.317Z,67.90
2023-03-24T13:10:41.414Z,68.00
2023-03-24T13:12:57.201Z,68.10
2023-03-24T13:15:10.008Z,68.10
2023-03-24T13:17:22.894Z,68.30
2023-03-24T13:19:30.473Z,68.50
2023-03-24T13:21:38.777Z,68.70
2023-03-24T13:23:52.616Z,68.60
2023-03-24T13:26:08.921Z,68.80
2023-03-24T13:28:25.416Z,69.10
2023-03-24T13:30:37.157Z,69.30
2023-03-24T13:32:48.170Z,69.20
2023-03-24T13:35:03.958Z,69.40
2023-03-24T13:37:15.696Z,69.40
2023-03-24T13:39:26.461Z,69.00
2023-03-24T13:41:41.771Z,69.30
2023-03-24T13:43:54.749Z,69.80
2023-03-24T13:46:04.628Z,69.80
2023-03-24T13:48:27.237Z,69.60
2023-03-24T13:50:36.313Z,69.40
2023-03-24T13:52:47.860Z,68.70
2023-03-24T13:55:02.759Z,68.70
2023-03-24T13:57:16.096Z,68.60
2023-03-24T13:59:32.192Z,67.80
2023-03-24T14:01:43.128Z,67.80
2023-03-24T14:04:10.756Z,67.70
2023-03-24T14:06:20.592Z,67.30
2023-03-24T14:08:44.885Z,66.10
2023-03-24T14:10:53.139Z,66.10
2023-03-24T14:13:06.260Z,66.90
2023-03-24T14:15:24.029Z,67.20
2023-03-24T14:17:31.274Z,66.10
2023-03-24T14:19:41.803Z,66.20
2023-03-24T14:21:55.220Z,66.80
2023-03-24T14:24:05.116Z,66.70
2023-03-24T14:26:17.254Z,65.80
2023-03-24T14:28:31.601Z,65.80
2023-03-24T14:30:41.853Z,65.30
2023-03-24T14:32:51.036Z,65.10
2023-03-24T14:35:01.192Z,64.70
2023-03-24T14:37:11.283Z,64.00
2023-03-24T14:39:29.905Z,63.70
2023-03-24T14:41:42.849Z,63.30
2023-03-24T14:44:01.945Z,63.40
2023-03-24T14:46:43.810Z,62.80
2023-03-24T14:48:59.177Z,63.00
2023-03-24T14:51:15.779Z,62.80
2023-03-24T14:53:25.368Z,62.70
2023-03-24T14:55:33.425Z,62.50
2023-03-24T14:57:44.753Z,62.30
2023-03-24T14:59:59.154Z,62.30
2023-03-24T15:02:23.429Z,62.20
2023-03-24T15:04:30.368Z,61.90
2023-03-24T15:06:47.960Z,62.40
2023-03-24T15:08:55.930Z,62.00
2023-03-24T15:11:05.993Z,61.70
2023-03-24T15:13:32.166Z,61.90
2023-03-24T15:15:39.595Z,62.00
2023-03-24T15:17:49.635Z,61.80
2023-03-24T15:19:57.955Z,61.70
2023-03-24T15:22:06.286Z,61.60
2023-03-24T15:24:31.059Z,61.70
2023-03-24T15:26:38.040Z,62.00
2023-03-24T15:28:45.370Z,61.90
2023-03-24T15:30:52.570Z,61.80
2023-03-24T15:33:02.700Z,61.90
2023-03-24T15:35:15.363Z,61.70
2023-03-24T15:37:27.107Z,61.60
2023-03-24T15:39:37.826Z,61.50
2023-03-24T15:41:45.099Z,61.10
2023-03-24T15:43:54.945Z,60.90
2023-03-24T15:46:12.345Z,60.70
2023-03-24T15:48:24.005Z,60.60
2023-03-24T15:50:34.068Z,61.20
2023-03-24T15:52:42.108Z,62.10
2023-03-24T15:54:49.341Z,62.90
2023-03-24T15:57:18.793Z,62.90
2023-03-24T15:59:26.074Z,62.70
2023-03-24T16:01:36.929Z,62.30
2023-03-24T16:03:49.417Z,61.90
2023-03-24T16:05:58.008Z,62.30
2023-03-24T16:08:06.883Z,62.10
2023-03-24T16:10:34.285Z,62.90
2023-03-24T16:12:41.671Z,62.20
2023-03-24T16:14:48.648Z,62.20
2023-03-24T16:16:59.255Z,61.90
2023-03-24T16:19:08.440Z,61.80
2023-03-24T16:21:18.491Z,61.90
2023-03-24T16:23:26.745Z,61.90
2023-03-24T16:25:33.979Z,61.60
2023-03-24T16:27:40.904Z,61.50
2023-03-24T16:29:48.342Z,61.90
2023-03-24T16:31:56.392Z,62.70
2023-03-24T16:34:03.482Z,63.70
2023-03-24T16:36:14.955Z,64.30
2023-03-24T16:38:21.321Z,64.50
2023-03-24T16:40:36.342Z,65.00
2023-03-24T16:42:43.412Z,64.20
2023-03-24T16:44:50.317Z,64.00
2023-03-24T16:46:58.377Z,64.50
2023-03-24T16:49:06.875Z,65.00
2023-03-24T16:51:19.272Z,65.80
2023-03-24T16:53:26.393Z,67.30
2023-03-24T16:55:34.031Z,68.80
2023-03-24T16:57:41.013Z,70.00
2023-03-24T16:59:48.292Z,70.30
2023-03-24T17:01:57.148Z,70.30
2023-03-24T17:04:05.628Z,70.40
2023-03-24T17:06:14.085Z,70.50
2023-03-24T17:08:23.311Z,70.80
2023-03-24T17:10:30.755Z,71.10
2023-03-24T17:12:37.886Z,71.40
2023-03-24T17:14:45.435Z,71.60
2023-03-24T17:16:53.991Z,72.10
2023-03-24T17:19:00.915Z,72.30
2023-03-24T17:21:08.863Z,72.60
2023-03-24T17:23:19.540Z,72.90
2023-03-24T17:25:30.189Z,72.90
2023-03-24T17:27:37.219Z,73.00
2023-03-24T17:29:44.502Z,73.00
2023-03-24T17:31:51.671Z,73.10
2023-03-24T17:34:03.751Z,73.40
2023-03-24T17:36:18.999Z,73.60
2023-03-24T17:38:27.058Z,74.00
2023-03-24T17:40:35.822Z,74.40
2023-03-24T17:42:46.331Z,74.60
2023-03-24T17:44:53.869Z,74.80
2023-03-24T17:47:01.293Z,75.10
2023-03-24T17:49:08.291Z,75.90
2023-03-24T17:51:15.465Z,82.10
2023-03-24T17:53:29.455Z,82.40
2023-03-24T17:55:38.583Z,81.50
2023-03-24T17:57:46.021Z,80.60
2023-03-24T17:59:53.312Z,80.10
2023-03-24T18:02:00.227Z,80.30
2023-03-24T18:04:07.657Z,80.00
2023-03-24T18:06:17.416Z,80.10
2023-03-24T18:08:24.995Z,80.20
2023-03-24T18:10:35.200Z,80.20
2023-03-24T18:12:44.632Z,79.90
2023-03-24T18:14:51.507Z,79.80
2023-03-24T18:16:58.730Z,79.60
2023-03-24T18:19:05.971Z,79.80
2023-03-24T18:21:13.203Z,79.80
2023-03-24T18:23:20.435Z,80.10
2023-03-24T18:25:27.719Z,80.60
2023-03-24T18:27:34.827Z,80.50
2023-03-24T18:29:44.130Z,80.50
2023-03-24T18:31:51.348Z,80.50
2023-03-24T18:33:58.858Z,80.60
2023-03-24T18:36:06.908Z,80.50
2023-03-24T18:38:16.237Z,80.60
2023-03-24T18:40:23.317Z,80.80
2023-03-24T18:42:30.861Z,80.80
2023-03-24T18:44:38.193Z,81.20
2023-03-24T18:46:47.372Z,81.20
2023-03-24T18:48:54.805Z,81.20
2023-03-24T18:51:02.195Z,81.10
2023-03-24T18:53:09.277Z,81.10
2023-03-24T18:55:19.244Z,81.00
2023-03-24T18:57:26.296Z,81.40
2023-03-24T18:59:33.583Z,81.00
2023-03-24T19:01:40.693Z,81.10
2023-03-24T19:03:50.672Z,81.10
2023-03-24T19:06:03.074Z,81.00
2023-03-24T19:08:10.811Z,81.20
2023-03-24T19:10:17.806Z,81.10
2023-03-24T19:12:24.869Z,81.10
2023-03-24T19:14:32.613Z,80.90
2023-03-24T19:16:39.825Z,80.90
2023-03-24T19:18:46.824Z,80.90
2023-03-24T19:20:58.732Z,80.90
2023-03-24T19:23:06.721Z,81.10
2023-03-24T19:25:16.524Z,81.30
2023-03-24T19:27:24.115Z,81.70
2023-03-24T19:29:31.436Z,81.70
2023-03-24T19:31:38.521Z,81.90
2023-03-24T19:33:45.955Z,82.10
2023-03-24T19:35:55.028Z,81.90
2023-03-24T19:38:02.980Z,82.10
2023-03-24T19:40:13.560Z,82.00
2023-03-24T19:42:20.928Z,82.00
2023-03-24T19:44:28.059Z,82.00
2023-03-24T19:46:35.317Z,82.00
2023-03-24T19:48:42.658Z,82.20
2023-03-24T19:50:52.628Z,82.50
2023-03-24T19:53:01.319Z,82.60
2023-03-24T19:55:09.445Z,82.70
2023-03-24T19:57:16.676Z,82.90
2023-03-24T19:59:24.014Z,82.90
2023-03-24T20:01:35.911Z,82.80
2023-03-24T20:03:43.213Z,83.10
2023-03-24T20:05:50.718Z,83.10
2023-03-24T20:08:00.375Z,83.00
2023-03-24T20:10:07.806Z,83.10
2023-03-24T20:12:15.499Z,83.10
2023-03-24T20:14:22.530Z,83.20
2023-03-24T20:16:30.066Z,83.20
2023-03-24T20:18:37.408Z,83.40
2023-03-24T20:20:44.745Z,83.40
2023-03-24T20:22:51.620Z,83.50
2023-03-24T20:25:00.224Z,83.50
2023-03-24T20:27:07.256Z,83.80
2023-03-24T20:29:14.699Z,83.70
2023-03-24T20:31:21.569Z,83.70
2023-03-24T20:33:29.776Z,83.50
2023-03-24T20:35:37.092Z,83.60
2023-03-24T20:37:44.443Z,83.50
2023-03-24T20:39:51.476Z,83.50
2023-03-24T20:42:00.496Z,83.40
2023-03-24T20:44:07.587Z,83.30
2023-03-24T20:46:15.566Z,83.50
2023-03-24T20:48:22.551Z,83.80
2023-03-24T20:50:29.992Z,83.70
2023-03-24T20:52:37.167Z,83.40
2023-03-24T20:54:44.505Z,83.60
2023-03-24T20:56:53.254Z,83.90
2023-03-24T20:59:02.457Z,83.60
2023-03-24T21:01:10.631Z,83.60
2023-03-24T21:03:17.790Z,83.40
2023-03-24T21:05:24.815Z,83.10
2023-03-24T21:07:32.057Z,83.00
2023-03-24T21:09:39.021Z,82.30
2023-03-24T21:11:46.410Z,81.70
2023-03-24T21:13:53.282Z,81.70
2023-03-24T21:16:05.735Z,82.10
2023-03-24T21:18:13.963Z,82.30
2023-03-24T21:20:21.852Z,82.70
2023-03-24T21:22:38.467Z,82.70
2023-03-24T21:24:45.528Z,83.10
2023-03-24T21:26:54.248Z,83.20
2023-03-24T21:29:01.541Z,83.30
2023-03-24T21:31:16.710Z,83.60
2023-03-24T21:33:24.034Z,83.30
2023-03-24T21:35:31.170Z,83.10
2023-03-24T21:37:42.902Z,82.90
2023-03-24T21:39:49.827Z,82.60
2023-03-24T21:41:57.164Z,82.30
2023-03-24T21:44:04.911Z,82.70
2023-03-24T21:46:21.524Z,82.90
2023-03-24T21:48:29.243Z,83.10
2023-03-24T21:50:39.715Z,83.10
2023-03-24T21:52:48.487Z,83.10
2023-03-24T21:54:59.045Z,83.00
2023-03-24T21:57:06.178Z,83.20
2023-03-24T21:59:14.018Z,83.40
2023-03-24T22:01:23.098Z,83.40
2023-03-24T22:03:31.514Z,83.40
2023-03-24T22:05:40.841Z,83.30
2023-03-24T22:07:48.736Z,83.30
2023-03-24T22:09:55.774Z,83.40
2023-03-24T22:12:03.144Z,83.30
2023-03-24T22:14:10.034Z,82.70
2023-03-24T22:16:17.156Z,83.00
2023-03-24T22:18:25.985Z,83.10
2023-03-24T22:20:34.542Z,83.50
2023-03-24T22:22:42.337Z,83.80
2023-03-24T22:24:49.675Z,86.40
2023-03-24T22:26:59.479Z,85.60
2023-03-24T22:29:07.159Z,85.90
2023-03-24T22:31:15.316Z,86.10
2023-03-24T22:33:22.596Z,86.00
2023-03-24T22:35:31.650Z,85.80
2023-03-24T22:37:39.008Z,85.80
2023-03-24T22:39:46.035Z,85.70
2023-03-24T22:41:53.320Z,86.00
2023-03-24T22:44:00.244Z,86.10
2023-03-24T22:46:08.053Z,86.50
2023-03-24T22:48:15.528Z,86.80
2023-03-24T22:50:22.760Z,87.00
2023-03-24T22:52:31.478Z,87.60
2023-03-24T22:54:39.121Z,87.50
2023-03-24T22:56:46.218Z,87.50
2023-03-24T22:58:53.853Z,87.60
2023-03-24T23:01:01.065Z,87.90
2023-03-24T23:03:08.717Z,88.10
2023-03-24T23:05:16.061Z,88.00
2023-03-24T23:07:23.333Z,88.20
2023-03-24T23:09:32.360Z,88.20
2023-03-24T23:11:39.646Z,88.40
2023-03-24T23:13:51.337Z,88.50
2023-03-24T23:15:58.511Z,88.40
2023-03-24T23:18:05.962Z,88.50
2023-03-24T23:20:16.414Z,88.60
2023-03-24T23:22:24.103Z,88.80
2023-03-24T23:24:34.562Z,88.90
2023-03-24T23:26:41.799Z,88.60
2023-03-24T23:28:48.820Z,88.90
2023-03-24T23:30:56.310Z,89.00
2023-03-24T23:33:05.184Z,89.10
2023-03-24T23:35:13.446Z,89.50
2023-03-24T23:37:21.033Z,89.80
2023-03-24T23:39:28.521Z,90.10
2023-03-24T23:41:37.239Z,90.20
2023-03-24T23:43:44.626Z,90.50
2023-03-24T23:45:51.974Z,90.70
2023-03-24T23:47:59.474Z,90.60
2023-03-24T23:50:07.249Z,90.70
2023-03-24T23:52:14.582Z,90.90
2023-03-24T23:54:21.775Z,91.00
2023-03-24T23:56:31.491Z,91.00
2023-03-24T23:58:42.169Z,91.00
